Time;durP1;ratioP1;P1;durP2;ratioP2;P2;SDS_P1;SDS_P2;PMS_P1;PMS_P2;Temp;Humidity;BMP_temperature;BMP_pressure;BME280_temperature;BME280_humidity;BME280_pressure;Samples;Min_cycle;Max_cycle;Signal;HPM_P1;HPM_P2
2023/07/15 00:00:48;;;;;;;5.15;2.30;;;;;;;;;;5015298;28;20025;-70
2023/07/15 00:03:14;;;;;;;5.70;2.63;;;;;;;;;;5024485;28;20028;-70
2023/07/15 00:05:39;;;;;;;8.13;2.20;;;;;;;;;;5028912;28;20029;-70
2023/07/15 00:08:05;;;;;;;6.38;2.60;;;;;;;;;;5018497;28;20105;-70
2023/07/15 00:10:31;;;;;;;8.20;2.60;;;;;;;;;;5025508;28;20025;-70
2023/07/15 00:12:57;;;;;;;5.82;2.25;;;;;;;;;;5027477;28;20402;-70
2023/07/15 00:15:22;;;;;;;5.30;2.20;;;;;;;;;;5023970;28;20025;-70
2023/07/15 00:17:47;;;;;;;7.32;2.88;;;;;;;;;;5023581;28;20037;-70
2023/07/15 00:20:14;;;;;;;5.45;2.10;;;;;;;;;;5030051;28;20505;-72
2023/07/15 00:22:45;;;;;;;3.92;2.03;;;;;;;;;;5018834;28;20030;-73
2023/07/15 00:25:15;;;;;;;5.35;2.40;;;;;;;;;;5020118;28;20037;-70
2023/07/15 00:27:40;;;;;;;5.15;2.22;;;;;;;;;;5024689;28;20541;-70
2023/07/15 00:30:07;;;;;;;5.65;2.40;;;;;;;;;;5023038;28;20168;-70
2023/07/15 00:32:32;;;;;;;3.92;2.30;;;;;;;;;;5027617;28;20057;-70
2023/07/15 00:34:58;;;;;;;5.28;2.35;;;;;;;;;;5030388;28;20126;-70
2023/07/15 00:37:23;;;;;;;4.82;2.20;;;;;;;;;;5025431;28;20022;-70
2023/07/15 00:39:48;;;;;;;6.05;2.30;;;;;;;;;;5020332;28;20018;-70
2023/07/15 00:42:17;;;;;;;4.70;2.30;;;;;;;;;;5027064;28;20470;-70
2023/07/15 00:44:43;;;;;;;4.22;2.08;;;;;;;;;;5007067;28;20513;-70
2023/07/15 00:47:21;;;;;;;4.97;2.47;;;;;;;;;;5015064;28;20029;-70
2023/07/15 00:49:46;;;;;;;8.00;2.10;;;;;;;;;;5022546;28;20044;-70
2023/07/15 00:52:13;;;;;;;5.03;2.30;;;;;;;;;;5030820;28;20029;-70
2023/07/15 00:54:40;;;;;;;5.18;2.10;;;;;;;;;;5032342;28;20032;-70
2023/07/15 00:57:06;;;;;;;5.22;1.92;;;;;;;;;;5031928;28;20032;-70
2023/07/15 00:59:31;;;;;;;4.97;2.47;;;;;;;;;;5023188;28;20026;-70
2023/07/15 01:01:57;;;;;;;3.88;2.10;;;;;;;;;;5017105;28;20037;-70
2023/07/15 01:04:22;;;;;;;5.13;2.35;;;;;;;;;;5037050;22;20053;-66
2023/07/15 01:06:48;;;;;;;5.63;2.40;;;;;;;;;;5027724;28;20075;-66
2023/07/15 01:09:13;;;;;;;4.32;2.10;;;;;;;;;;5033206;28;20014;-66
2023/07/15 01:11:39;;;;;;;4.38;1.77;;;;;;;;;;5031101;28;20461;-65
2023/07/15 01:14:05;;;;;;;4.80;1.90;;;;;;;;;;5029325;28;20026;-66
2023/07/15 01:16:30;;;;;;;4.35;2.00;;;;;;;;;;5027187;28;21378;-66
2023/07/15 01:18:56;;;;;;;4.70;2.10;;;;;;;;;;5028833;28;20029;-66
2023/07/15 01:21:21;;;;;;;5.40;2.20;;;;;;;;;;5033107;28;20373;-66
2023/07/15 01:23:47;;;;;;;3.22;1.67;;;;;;;;;;5032659;28;20095;-66
2023/07/15 01:26:12;;;;;;;3.75;1.83;;;;;;;;;;5028917;28;20440;-66
2023/07/15 01:28:37;;;;;;;9.25;2.20;;;;;;;;;;5025802;28;20024;-65
2023/07/15 01:31:03;;;;;;;5.15;2.33;;;;;;;;;;5023404;28;20358;-66
2023/07/15 01:33:29;;;;;;;4.75;2.10;;;;;;;;;;5032637;28;20473;-66
2023/07/15 01:35:54;;;;;;;4.78;2.38;;;;;;;;;;5036531;28;20041;-66
2023/07/15 01:38:19;;;;;;;4.70;2.00;;;;;;;;;;5036469;28;20414;-66
2023/07/15 01:40:45;;;;;;;4.05;1.85;;;;;;;;;;5034739;28;20025;-66
2023/07/15 01:43:10;;;;;;;5.28;1.77;;;;;;;;;;5032987;28;20026;-66
2023/07/15 01:45:36;;;;;;;5.00;1.85;;;;;;;;;;5035517;28;20369;-66
2023/07/15 01:48:01;;;;;;;5.53;2.00;;;;;;;;;;5036809;28;20017;-66
2023/07/15 01:50:26;;;;;;;5.45;2.25;;;;;;;;;;5037167;28;20048;-66
2023/07/15 01:52:51;;;;;;;3.80;2.00;;;;;;;;;;5034648;28;20044;-66
2023/07/15 01:55:17;;;;;;;4.30;2.00;;;;;;;;;;5036802;28;20032;-65
2023/07/15 01:57:42;;;;;;;5.22;1.95;;;;;;;;;;5034012;28;20030;-65
2023/07/15 02:00:10;;;;;;;4.43;2.10;;;;;;;;;;5036311;28;20026;-66
2023/07/15 02:02:36;;;;;;;6.13;1.85;;;;;;;;;;5034494;28;20032;-66
2023/07/15 02:05:01;;;;;;;4.53;2.08;;;;;;;;;;5018895;28;20057;-66
2023/07/15 02:07:26;;;;;;;5.65;2.28;;;;;;;;;;5016466;28;20049;-66
2023/07/15 02:09:51;;;;;;;5.03;2.30;;;;;;;;;;5015928;28;20385;-65
2023/07/15 02:12:17;;;;;;;5.57;2.42;;;;;;;;;;5017035;28;20513;-66
2023/07/15 02:14:43;;;;;;;5.60;1.83;;;;;;;;;;5008071;28;20073;-66
2023/07/15 02:17:08;;;;;;;4.85;1.90;;;;;;;;;;4996951;28;20019;-65
2023/07/15 02:19:33;;;;;;;4.57;1.95;;;;;;;;;;5014277;28;20120;-65
2023/07/15 02:21:58;;;;;;;4.45;2.13;;;;;;;;;;5015883;28;20108;-65
2023/07/15 02:24:24;;;;;;;4.38;2.00;;;;;;;;;;5014990;28;20037;-70
2023/07/15 02:26:49;;;;;;;6.10;2.45;;;;;;;;;;5016782;28;20432;-70
2023/07/15 02:29:14;;;;;;;7.10;2.33;;;;;;;;;;5016669;28;20033;-69
2023/07/15 02:31:41;;;;;;;5.03;2.40;;;;;;;;;;5014355;28;20034;-69
2023/07/15 02:34:07;;;;;;;7.68;2.33;;;;;;;;;;5015138;28;20485;-69
2023/07/15 02:36:32;;;;;;;5.15;2.38;;;;;;;;;;5015735;28;20018;-69
2023/07/15 02:38:57;;;;;;;4.82;2.45;;;;;;;;;;5016334;28;20018;-69
2023/07/15 02:41:23;;;;;;;4.85;2.40;;;;;;;;;;4997375;28;20477;-69
2023/07/15 02:43:48;;;;;;;7.75;2.45;;;;;;;;;;5016434;28;20073;-69
2023/07/15 02:46:13;;;;;;;5.28;2.30;;;;;;;;;;5014767;28;20037;-69
2023/07/15 02:48:38;;;;;;;5.38;2.20;;;;;;;;;;5014635;28;20026;-69
2023/07/15 02:51:04;;;;;;;5.30;2.30;;;;;;;;;;5015275;28;20438;-69
2023/07/15 02:53:29;;;;;;;4.88;2.20;;;;;;;;;;5016216;28;20080;-69
2023/07/15 02:55:56;;;;;;;4.95;2.20;;;;;;;;;;5012980;28;20026;-69
2023/07/15 02:58:21;;;;;;;4.70;2.17;;;;;;;;;;5016192;28;20052;-69
2023/07/15 03:00:48;;;;;;;4.22;2.25;;;;;;;;;;5005113;28;21730;-70
2023/07/15 03:03:13;;;;;;;6.07;2.47;;;;;;;;;;5015721;28;20065;-69
2023/07/15 03:05:39;;;;;;;5.10;2.13;;;;;;;;;;5004835;28;20084;-69
2023/07/15 03:08:04;;;;;;;4.18;2.45;;;;;;;;;;5015175;28;20030;-69
2023/07/15 03:10:29;;;;;;;4.63;2.30;;;;;;;;;;5015266;28;20018;-70
2023/07/15 03:12:54;;;;;;;7.38;2.15;;;;;;;;;;4998149;28;20041;-69
2023/07/15 03:15:20;;;;;;;4.68;1.95;;;;;;;;;;5015308;28;20017;-69
2023/07/15 03:17:46;;;;;;;4.97;2.30;;;;;;;;;;5015521;28;20018;-69
2023/07/15 03:20:19;;;;;;;6.07;2.30;;;;;;;;;;5012424;28;20025;-69
2023/07/15 03:22:54;;;;;;;5.97;2.65;;;;;;;;;;5015464;28;20079;-69
2023/07/15 03:25:19;;;;;;;4.30;2.22;;;;;;;;;;5014997;28;20030;-69
2023/07/15 03:27:45;;;;;;;5.38;2.10;;;;;;;;;;5013005;28;21888;-69
2023/07/15 03:30:11;;;;;;;4.65;2.45;;;;;;;;;;5014087;28;20021;-69
2023/07/15 03:32:39;;;;;;;6.75;2.38;;;;;;;;;;5014501;28;20030;-69
2023/07/15 03:35:06;;;;;;;4.35;2.50;;;;;;;;;;5007876;28;20049;-69
2023/07/15 03:37:35;;;;;;;5.05;2.58;;;;;;;;;;5014533;28;20386;-69
2023/07/15 03:40:00;;;;;;;5.85;2.53;;;;;;;;;;5014567;28;20026;-69
2023/07/15 03:42:26;;;;;;;7.57;2.45;;;;;;;;;;5013909;28;20033;-69
2023/07/15 03:44:51;;;;;;;5.60;2.95;;;;;;;;;;5013575;28;20101;-69
2023/07/15 03:47:17;;;;;;;7.10;2.30;;;;;;;;;;5014791;28;20029;-69
2023/07/15 03:49:43;;;;;;;6.15;2.20;;;;;;;;;;5008534;28;20026;-69
2023/07/15 03:52:09;;;;;;;4.88;2.30;;;;;;;;;;5013510;28;20026;-69
2023/07/15 03:54:34;;;;;;;6.80;2.30;;;;;;;;;;5014867;28;20478;-69
2023/07/15 03:56:59;;;;;;;5.50;2.20;;;;;;;;;;5013026;28;20026;-69
2023/07/15 03:59:24;;;;;;;5.85;2.13;;;;;;;;;;5014326;28;20076;-69
2023/07/15 04:01:49;;;;;;;4.95;2.10;;;;;;;;;;5012978;28;20095;-69
2023/07/15 04:04:15;;;;;;;5.70;2.28;;;;;;;;;;5013140;28;20056;-68
2023/07/15 04:06:40;;;;;;;5.30;2.00;;;;;;;;;;5013145;28;20033;-69
2023/07/15 04:09:06;;;;;;;5.10;2.53;;;;;;;;;;5013858;28;20033;-69
2023/07/15 04:11:32;;;;;;;6.55;2.33;;;;;;;;;;5012719;28;20022;-68
2023/07/15 04:13:57;;;;;;;5.63;2.38;;;;;;;;;;5013930;28;20474;-67
2023/07/15 04:16:22;;;;;;;4.20;2.05;;;;;;;;;;5011081;28;20026;-67
2023/07/15 04:18:48;;;;;;;5.53;2.15;;;;;;;;;;5013969;28;20033;-67
2023/07/15 04:21:13;;;;;;;4.05;2.00;;;;;;;;;;5014396;28;20033;-67
2023/07/15 04:23:38;;;;;;;4.13;1.90;;;;;;;;;;5013317;28;20119;-66
2023/07/15 04:26:03;;;;;;;4.25;2.08;;;;;;;;;;5013984;28;20087;-67
2023/07/15 04:28:29;;;;;;;6.72;2.50;;;;;;;;;;5013337;28;20033;-67
2023/07/15 04:30:54;;;;;;;5.05;2.15;;;;;;;;;;5010961;28;20029;-67
2023/07/15 04:33:20;;;;;;;4.70;2.40;;;;;;;;;;5013340;28;20021;-67
2023/07/15 04:35:46;;;;;;;6.32;2.30;;;;;;;;;;5013837;28;20057;-67
2023/07/15 04:38:11;;;;;;;5.85;2.20;;;;;;;;;;5012023;28;20065;-66
2023/07/15 04:40:36;;;;;;;5.72;2.03;;;;;;;;;;5013704;28;20041;-67
2023/07/15 04:43:01;;;;;;;5.10;1.85;;;;;;;;;;5013852;28;20041;-67
2023/07/15 04:45:27;;;;;;;4.30;1.90;;;;;;;;;;5011150;28;20542;-67
2023/07/15 04:47:52;;;;;;;3.97;1.75;;;;;;;;;;5014168;28;20030;-68
2023/07/15 04:50:18;;;;;;;5.10;2.10;;;;;;;;;;5011991;28;20026;-67
2023/07/15 04:52:43;;;;;;;3.67;1.80;;;;;;;;;;5011806;28;20022;-69
2023/07/15 04:55:09;;;;;;;5.03;1.80;;;;;;;;;;5013347;28;20068;-69
2023/07/15 04:57:34;;;;;;;5.32;2.20;;;;;;;;;;5011008;28;20025;-70
2023/07/15 04:59:59;;;;;;;5.47;1.92;;;;;;;;;;5004733;28;20037;-68
2023/07/15 05:02:24;;;;;;;4.70;2.20;;;;;;;;;;5008010;28;20037;-68
2023/07/15 05:04:50;;;;;;;3.45;1.80;;;;;;;;;;5012461;28;20125;-67
2023/07/15 05:07:15;;;;;;;8.30;2.33;;;;;;;;;;5013380;28;20101;-66
2023/07/15 05:09:40;;;;;;;4.25;1.90;;;;;;;;;;5011721;28;20037;-66
2023/07/15 05:12:06;;;;;;;5.03;2.05;;;;;;;;;;5012528;28;20025;-66
2023/07/15 05:14:32;;;;;;;4.90;1.60;;;;;;;;;;5013310;28;20446;-66
2023/07/15 05:16:58;;;;;;;3.60;1.80;;;;;;;;;;5013165;28;20026;-66
2023/07/15 05:19:24;;;;;;;3.47;1.80;;;;;;;;;;5013105;28;20053;-66
2023/07/15 05:21:49;;;;;;;4.53;1.88;;;;;;;;;;5011728;28;20445;-66
2023/07/15 05:24:14;;;;;;;3.05;1.63;;;;;;;;;;5011641;28;20018;-66
2023/07/15 05:26:39;;;;;;;4.97;1.80;;;;;;;;;;5012170;28;20021;-66
2023/07/15 05:29:07;;;;;;;4.65;1.70;;;;;;;;;;5011107;28;20390;-66
2023/07/15 05:31:32;;;;;;;4.32;1.75;;;;;;;;;;5011336;28;20065;-66
2023/07/15 05:33:58;;;;;;;3.25;1.60;;;;;;;;;;5012722;28;20100;-68
2023/07/15 05:36:23;;;;;;;4.85;1.63;;;;;;;;;;5012931;28;20018;-66
2023/07/15 05:38:48;;;;;;;4.32;1.60;;;;;;;;;;5009516;28;20514;-66
2023/07/15 05:41:13;;;;;;;6.05;1.60;;;;;;;;;;5010594;28;20386;-67
2023/07/15 05:43:38;;;;;;;3.53;1.67;;;;;;;;;;5010100;28;20037;-67
2023/07/15 05:46:04;;;;;;;7.40;1.73;;;;;;;;;;5012252;28;20030;-67
2023/07/15 05:48:29;;;;;;;3.92;1.50;;;;;;;;;;5012191;28;20017;-67
2023/07/15 05:50:54;;;;;;;4.30;1.38;;;;;;;;;;5013344;28;20018;-71
2023/07/15 05:53:20;;;;;;;3.30;1.30;;;;;;;;;;5013606;28;20032;-72
2023/07/15 05:55:45;;;;;;;3.63;1.50;;;;;;;;;;5011297;28;20053;-71
2023/07/15 05:58:10;;;;;;;4.32;1.60;;;;;;;;;;5011666;28;20018;-70
2023/07/15 06:00:39;;;;;;;5.15;1.65;;;;;;;;;;5011763;28;20033;-71
2023/07/15 06:03:05;;;;;;;3.25;1.50;;;;;;;;;;5013555;28;20022;-74
2023/07/15 06:05:30;;;;;;;2.90;1.35;;;;;;;;;;5012488;28;21857;-72
2023/07/15 06:07:55;;;;;;;4.28;1.40;;;;;;;;;;5012265;28;20024;-69
2023/07/15 06:10:20;;;;;;;3.60;1.42;;;;;;;;;;5010269;28;20100;-68
2023/07/15 06:12:46;;;;;;;4.38;1.80;;;;;;;;;;5011665;28;20022;-66
2023/07/15 06:15:11;;;;;;;2.90;1.30;;;;;;;;;;5013081;28;20040;-66
2023/07/15 06:17:37;;;;;;;3.35;1.50;;;;;;;;;;5011450;28;20030;-66
2023/07/15 06:20:03;;;;;;;3.97;1.50;;;;;;;;;;5012232;28;20026;-66
2023/07/15 06:22:29;;;;;;;3.17;1.40;;;;;;;;;;5014702;28;20033;-66
2023/07/15 06:24:54;;;;;;;3.40;1.25;;;;;;;;;;5016270;28;20088;-66
2023/07/15 06:27:19;;;;;;;2.63;1.20;;;;;;;;;;5014112;28;20363;-66
2023/07/15 06:29:47;;;;;;;3.63;1.50;;;;;;;;;;5015776;28;20390;-66
2023/07/15 06:32:12;;;;;;;3.85;1.40;;;;;;;;;;5015154;28;20026;-66
2023/07/15 06:34:37;;;;;;;3.47;1.30;;;;;;;;;;5013669;28;20044;-66
2023/07/15 06:37:03;;;;;;;2.53;1.17;;;;;;;;;;5000218;28;20069;-66
2023/07/15 06:39:28;;;;;;;2.45;1.17;;;;;;;;;;5015732;28;20381;-66
2023/07/15 06:41:53;;;;;;;3.67;1.50;;;;;;;;;;5014870;28;20385;-66
2023/07/15 06:44:18;;;;;;;3.72;1.35;;;;;;;;;;5015444;28;20025;-66
2023/07/15 06:46:43;;;;;;;3.03;1.25;;;;;;;;;;5014287;28;20105;-65
2023/07/15 06:49:09;;;;;;;3.33;1.33;;;;;;;;;;5014144;28;20025;-66
2023/07/15 06:51:34;;;;;;;4.90;1.02;;;;;;;;;;5015332;28;20026;-66
2023/07/15 06:53:59;;;;;;;5.15;1.20;;;;;;;;;;5016128;28;20022;-68
2023/07/15 06:56:24;;;;;;;5.40;1.20;;;;;;;;;;5012450;28;20038;-67
2023/07/15 06:58:50;;;;;;;3.97;1.20;;;;;;;;;;5014777;28;20010;-67
2023/07/15 07:01:15;;;;;;;2.72;1.30;;;;;;;;;;5016120;28;20068;-67
2023/07/15 07:03:40;;;;;;;3.85;1.30;;;;;;;;;;5015133;28;20541;-65
2023/07/15 07:06:05;;;;;;;5.97;1.20;;;;;;;;;;5015177;28;20044;-66
2023/07/15 07:08:31;;;;;;;3.17;1.27;;;;;;;;;;5015349;28;20021;-67
2023/07/15 07:10:56;;;;;;;2.85;1.25;;;;;;;;;;5015937;28;20026;-67
2023/07/15 07:13:21;;;;;;;1.98;1.10;;;;;;;;;;5013969;28;20022;-66
2023/07/15 07:15:49;;;;;;;2.58;1.13;;;;;;;;;;4997606;28;20029;-66
2023/07/15 07:18:15;;;;;;;3.63;1.20;;;;;;;;;;5014554;28;20065;-67
2023/07/15 07:20:41;;;;;;;3.30;1.20;;;;;;;;;;5014987;28;20026;-66
2023/07/15 07:23:06;;;;;;;2.63;1.20;;;;;;;;;;5013952;28;20061;-66
2023/07/15 07:25:31;;;;;;;4.30;1.20;;;;;;;;;;5014843;28;20061;-66
2023/07/15 07:27:57;;;;;;;3.58;1.25;;;;;;;;;;5012511;28;20022;-66
2023/07/15 07:30:23;;;;;;;3.97;1.10;;;;;;;;;;5002684;28;20029;-66
2023/07/15 07:32:48;;;;;;;3.00;1.10;;;;;;;;;;5014311;28;20038;-66
2023/07/15 07:35:14;;;;;;;3.13;1.08;;;;;;;;;;5014763;28;20022;-66
2023/07/15 07:37:39;;;;;;;2.55;1.10;;;;;;;;;;5009908;28;20025;-67
2023/07/15 07:40:05;;;;;;;4.22;1.08;;;;;;;;;;5009583;28;20033;-66
2023/07/15 07:42:30;;;;;;;3.05;1.10;;;;;;;;;;5011938;28;20030;-66
2023/07/15 07:44:55;;;;;;;2.42;1.08;;;;;;;;;;5013307;28;20025;-66
2023/07/15 07:47:20;;;;;;;2.05;0.95;;;;;;;;;;5012884;28;20018;-66
2023/07/15 07:49:46;;;;;;;2.00;1.10;;;;;;;;;;5014620;28;20057;-66
2023/07/15 07:52:11;;;;;;;2.17;1.10;;;;;;;;;;5013393;28;20100;-67
2023/07/15 07:54:36;;;;;;;5.15;1.40;;;;;;;;;;5013361;28;20053;-66
2023/07/15 07:57:01;;;;;;;2.80;1.20;;;;;;;;;;5013680;28;20026;-66
2023/07/15 07:59:27;;;;;;;3.50;1.13;;;;;;;;;;5013366;28;20374;-66
2023/07/15 08:01:52;;;;;;;3.08;1.20;;;;;;;;;;5011932;28;20034;-66
2023/07/15 08:04:17;;;;;;;3.90;1.20;;;;;;;;;;4996497;28;20100;-66
2023/07/15 08:06:43;;;;;;;2.80;1.20;;;;;;;;;;5012576;28;20100;-66
2023/07/15 08:09:08;;;;;;;4.43;1.10;;;;;;;;;;5010807;28;20049;-66
2023/07/15 08:11:35;;;;;;;3.13;1.20;;;;;;;;;;5009293;28;20050;-66
2023/07/15 08:14:00;;;;;;;3.50;1.30;;;;;;;;;;5010629;28;20026;-67
2023/07/15 08:16:32;;;;;;;3.60;1.20;;;;;;;;;;5013654;28;20096;-66
2023/07/15 08:18:58;;;;;;;2.30;1.00;;;;;;;;;;5013999;28;20272;-66
2023/07/15 08:21:23;;;;;;;2.67;1.00;;;;;;;;;;5012019;28;20024;-66
2023/07/15 08:23:48;;;;;;;2.60;1.10;;;;;;;;;;5013626;28;20038;-66
2023/07/15 08:26:13;;;;;;;3.22;1.20;;;;;;;;;;5011022;28;20026;-67
2023/07/15 08:28:39;;;;;;;2.72;1.00;;;;;;;;;;5011372;28;20037;-66
2023/07/15 08:31:04;;;;;;;3.05;1.00;;;;;;;;;;5009538;28;20080;-67
2023/07/15 08:33:29;;;;;;;2.40;1.00;;;;;;;;;;5002876;28;20057;-66
2023/07/15 08:35:54;;;;;;;2.67;1.00;;;;;;;;;;5012701;28;20285;-66
2023/07/15 08:38:20;;;;;;;2.38;1.08;;;;;;;;;;5013441;28;20017;-66
2023/07/15 08:40:48;;;;;;;2.33;1.05;;;;;;;;;;5012181;28;20037;-66
2023/07/15 08:43:13;;;;;;;2.63;0.90;;;;;;;;;;5011724;28;20153;-66
2023/07/15 08:45:39;;;;;;;2.58;1.08;;;;;;;;;;5011504;28;20053;-66
2023/07/15 08:48:06;;;;;;;2.45;1.10;;;;;;;;;;5012667;28;20022;-66
2023/07/15 08:50:34;;;;;;;4.47;1.30;;;;;;;;;;5012464;28;20048;-67
2023/07/15 08:53:00;;;;;;;3.05;1.00;;;;;;;;;;5013063;28;20021;-66
2023/07/15 08:55:28;;;;;;;2.88;1.10;;;;;;;;;;5011306;28;20026;-66
2023/07/15 08:57:53;;;;;;;2.85;1.20;;;;;;;;;;5012880;28;20105;-66
2023/07/15 09:00:19;;;;;;;2.20;1.00;;;;;;;;;;5010805;28;20112;-67
2023/07/15 09:02:44;;;;;;;3.53;1.10;;;;;;;;;;5011418;28;20016;-67
2023/07/15 09:05:10;;;;;;;2.28;1.13;;;;;;;;;;5013424;28;20141;-66
2023/07/15 09:07:54;;;;;;;2.92;1.20;;;;;;;;;;5008721;28;20022;-66
2023/07/15 09:10:19;;;;;;;2.80;0.90;;;;;;;;;;5009824;28;20478;-66
2023/07/15 09:12:45;;;;;;;2.95;1.08;;;;;;;;;;5012112;28;20040;-65
2023/07/15 09:15:12;;;;;;;5.40;1.15;;;;;;;;;;5012769;28;20391;-66
2023/07/15 09:17:37;;;;;;;2.42;0.95;;;;;;;;;;5012593;28;20034;-66
2023/07/15 09:20:16;;;;;;;3.03;0.98;;;;;;;;;;5013674;28;20026;-66
2023/07/15 09:22:41;;;;;;;2.63;1.00;;;;;;;;;;5007824;28;20075;-66
2023/07/15 09:25:08;;;;;;;2.65;1.00;;;;;;;;;;4998545;28;20030;-66
2023/07/15 09:27:34;;;;;;;3.33;1.58;;;;;;;;;;5012739;28;20386;-66
2023/07/15 09:29:59;;;;;;;3.20;1.05;;;;;;;;;;5010674;28;20026;-67
2023/07/15 09:32:24;;;;;;;4.65;1.00;;;;;;;;;;5012777;28;20045;-66
2023/07/15 09:34:51;;;;;;;3.20;1.00;;;;;;;;;;5011780;28;20102;-66
2023/07/15 09:37:32;;;;;;;2.95;0.90;;;;;;;;;;5012958;28;20025;-66
2023/07/15 09:40:01;;;;;;;2.67;1.10;;;;;;;;;;5008868;28;20025;-66
2023/07/15 09:42:29;;;;;;;8.27;1.27;;;;;;;;;;5007515;28;20504;-67
2023/07/15 09:44:54;;;;;;;3.45;1.15;;;;;;;;;;5010462;28;20038;-67
2023/07/15 09:47:23;;;;;;;3.45;1.10;;;;;;;;;;5009767;28;20022;-66
2023/07/15 09:49:48;;;;;;;3.55;1.02;;;;;;;;;;5011090;28;20025;-66
2023/07/15 09:52:14;;;;;;;2.33;0.88;;;;;;;;;;5011421;28;20022;-65
2023/07/15 09:54:41;;;;;;;2.85;1.10;;;;;;;;;;5003321;28;20030;-66
2023/07/15 09:57:10;;;;;;;2.30;0.90;;;;;;;;;;5015572;28;20126;-66
2023/07/15 09:59:38;;;;;;;3.63;0.90;;;;;;;;;;5014768;28;20504;-66
2023/07/15 10:02:04;;;;;;;3.03;1.35;;;;;;;;;;5016320;28;20787;-66
2023/07/15 10:04:33;;;;;;;2.47;1.00;;;;;;;;;;5016856;28;20045;-67
2023/07/15 10:07:00;;;;;;;2.05;0.90;;;;;;;;;;5009663;28;20925;-67
2023/07/15 10:09:25;;;;;;;3.03;0.90;;;;;;;;;;5011479;28;20550;-66
2023/07/15 10:11:51;;;;;;;2.63;0.93;;;;;;;;;;4998739;28;20100;-68
2023/07/15 10:14:17;;;;;;;4.28;0.95;;;;;;;;;;5015732;28;20486;-66
2023/07/15 10:16:42;;;;;;;2.08;0.77;;;;;;;;;;5016701;28;20033;-66
2023/07/15 10:19:27;;;;;;;1.48;0.80;;;;;;;;;;5015417;28;20022;-66
2023/07/15 10:21:57;;;;;;;6.10;1.50;;;;;;;;;;5008878;28;20022;-66
2023/07/15 10:24:25;;;;;;;2.20;0.80;;;;;;;;;;5016326;28;20469;-67
2023/07/15 10:26:53;;;;;;;2.40;0.90;;;;;;;;;;5016804;28;20041;-67
2023/07/15 10:29:22;;;;;;;2.75;0.90;;;;;;;;;;5015737;28;20025;-68
2023/07/15 10:32:06;;;;;;;5.82;1.35;;;;;;;;;;5014594;28;20113;-68
2023/07/15 10:34:51;;;;;;;2.40;0.93;;;;;;;;;;5007841;28;20017;-68
2023/07/15 10:37:17;;;;;;;1.60;0.70;;;;;;;;;;5014511;28;20025;-67
2023/07/15 10:39:43;;;;;;;2.05;0.80;;;;;;;;;;5012880;28;20052;-69
2023/07/15 10:42:11;;;;;;;2.35;0.80;;;;;;;;;;5012916;28;20465;-68
2023/07/15 10:44:47;;;;;;;3.78;1.10;;;;;;;;;;5014320;28;20022;-70
2023/07/15 10:47:15;;;;;;;1.73;0.75;;;;;;;;;;5014870;28;20029;-68
2023/07/15 10:49:41;;;;;;;2.08;0.90;;;;;;;;;;5013110;28;20034;-68
2023/07/15 10:52:06;;;;;;;2.63;1.10;;;;;;;;;;5013827;28;20013;-68
2023/07/15 10:54:34;;;;;;;2.65;0.70;;;;;;;;;;5005726;28;20092;-68
2023/07/15 10:57:06;;;;;;;2.92;1.10;;;;;;;;;;5006395;28;20428;-68
2023/07/15 10:59:35;;;;;;;5.00;1.00;;;;;;;;;;5005917;28;20463;-68
2023/07/15 11:02:01;;;;;;;3.35;0.90;;;;;;;;;;5008142;28;20061;-67
2023/07/15 11:04:26;;;;;;;3.47;1.10;;;;;;;;;;5008108;28;20044;-67
2023/07/15 11:06:51;;;;;;;3.60;1.10;;;;;;;;;;5013008;28;20026;-67
2023/07/15 11:09:20;;;;;;;3.00;1.20;;;;;;;;;;5014646;28;20021;-68
2023/07/15 11:11:46;;;;;;;2.35;1.00;;;;;;;;;;5012236;28;20382;-67
2023/07/15 11:14:38;;;;;;;4.22;1.10;;;;;;;;;;5012191;28;20014;-68
2023/07/15 11:17:04;;;;;;;;;;;;;;;;;;5003765;28;20528;-68
2023/07/15 11:19:30;;;;;;;2.90;1.00;;;;;;;;;;5010426;28;19913;-68
2023/07/15 11:21:56;;;;;;;2.20;1.00;;;;;;;;;;5013829;28;20029;-69
2023/07/15 11:24:22;;;;;;;3.17;1.30;;;;;;;;;;5015210;28;20394;-68
2023/07/15 11:26:47;;;;;;;3.88;0.90;;;;;;;;;;5014718;28;20080;-68
2023/07/15 11:29:16;;;;;;;2.45;1.17;;;;;;;;;;5015262;28;20030;-67
2023/07/15 11:31:42;;;;;;;2.05;0.95;;;;;;;;;;5013843;28;20392;-67
2023/07/15 11:34:09;;;;;;;2.05;1.00;;;;;;;;;;5015483;28;20022;-68
2023/07/15 11:36:34;;;;;;;2.25;0.90;;;;;;;;;;5013562;28;20109;-68
2023/07/15 11:39:00;;;;;;;3.50;1.00;;;;;;;;;;5008051;28;20121;-67
2023/07/15 11:41:26;;;;;;;3.08;1.02;;;;;;;;;;5000176;28;20072;-67
2023/07/15 11:43:51;;;;;;;2.85;1.20;;;;;;;;;;5014569;28;20429;-68
2023/07/15 11:46:17;;;;;;;3.88;1.17;;;;;;;;;;5013609;28;20356;-68
2023/07/15 11:48:42;;;;;;;3.80;1.30;;;;;;;;;;5014981;28;20359;-68
2023/07/15 11:51:08;;;;;;;2.45;1.10;;;;;;;;;;5013369;28;20050;-69
2023/07/15 11:53:34;;;;;;;2.65;1.23;;;;;;;;;;5012950;28;20022;-69
2023/07/15 11:56:00;;;;;;;4.22;1.00;;;;;;;;;;5014658;28;20434;-69
2023/07/15 11:58:37;;;;;;;2.58;1.10;;;;;;;;;;5013912;28;20038;-69
2023/07/15 12:01:03;;;;;;;4.30;1.10;;;;;;;;;;5013988;28;20026;-69
2023/07/15 12:03:28;;;;;;;3.40;1.05;;;;;;;;;;5012972;28;20025;-69
2023/07/15 12:05:54;;;;;;;3.30;1.00;;;;;;;;;;5011229;28;20369;-69
2023/07/15 12:08:19;;;;;;;2.70;1.10;;;;;;;;;;4996496;28;20022;-69
2023/07/15 12:10:48;;;;;;;2.88;0.90;;;;;;;;;;5014811;28;20064;-69
2023/07/15 12:13:13;;;;;;;1.88;0.90;;;;;;;;;;5013174;28;20433;-68
2023/07/15 12:15:38;;;;;;;2.60;1.10;;;;;;;;;;5014519;28;20021;-70
2023/07/15 12:18:04;;;;;;;2.63;1.08;;;;;;;;;;5012231;28;20462;-70
2023/07/15 12:20:29;;;;;;;3.05;1.10;;;;;;;;;;5014412;28;20018;-70
2023/07/15 12:22:54;;;;;;;2.75;1.17;;;;;;;;;;5007120;28;20386;-69
2023/07/15 12:25:23;;;;;;;2.78;1.20;;;;;;;;;;5013841;28;20018;-69
2023/07/15 12:27:48;;;;;;;1.98;1.00;;;;;;;;;;5013978;28;20500;-69
2023/07/15 12:30:13;;;;;;;2.78;1.13;;;;;;;;;;5014216;28;20018;-68
2023/07/15 12:32:38;;;;;;;4.28;1.35;;;;;;;;;;5011061;28;20029;-67
2023/07/15 12:35:04;;;;;;;2.75;1.20;;;;;;;;;;5014192;28;20103;-68
2023/07/15 12:37:29;;;;;;;4.55;1.30;;;;;;;;;;5012595;28;20041;-69
2023/07/15 12:39:54;;;;;;;4.57;1.10;;;;;;;;;;5013638;28;20087;-68
2023/07/15 12:42:20;;;;;;;2.20;0.90;;;;;;;;;;5014274;28;20057;-68
2023/07/15 12:44:45;;;;;;;2.05;1.10;;;;;;;;;;5011657;28;20386;-69
2023/07/15 12:47:10;;;;;;;2.85;1.00;;;;;;;;;;5012723;28;20022;-68
2023/07/15 12:49:35;;;;;;;2.25;1.10;;;;;;;;;;5011252;28;20030;-67
2023/07/15 12:52:01;;;;;;;2.30;1.00;;;;;;;;;;5014114;28;20029;-69
2023/07/15 12:54:26;;;;;;;2.65;1.25;;;;;;;;;;5011877;28;20434;-68
2023/07/15 12:56:51;;;;;;;3.33;1.05;;;;;;;;;;5011675;28;20037;-68
2023/07/15 12:59:16;;;;;;;3.03;1.20;;;;;;;;;;5001713;28;20030;-69
2023/07/15 13:01:41;;;;;;;2.45;0.95;;;;;;;;;;5008872;28;20057;-70
2023/07/15 13:04:07;;;;;;;2.17;1.00;;;;;;;;;;5013009;28;20050;-74
2023/07/15 13:06:32;;;;;;;3.25;1.13;;;;;;;;;;5011430;28;20026;-71
2023/07/15 13:08:57;;;;;;;2.47;1.20;;;;;;;;;;5009337;28;20018;-72
2023/07/15 13:11:22;;;;;;;3.25;1.10;;;;;;;;;;5010661;28;20434;-71
2023/07/15 13:13:48;;;;;;;1.88;0.90;;;;;;;;;;5010573;28;20022;-71
2023/07/15 13:16:13;;;;;;;2.55;1.00;;;;;;;;;;5013734;28;20022;-72
2023/07/15 13:18:38;;;;;;;2.95;0.90;;;;;;;;;;5013032;28;20028;-72
2023/07/15 13:21:04;;;;;;;1.70;0.90;;;;;;;;;;4995649;28;20104;-72
2023/07/15 13:23:29;;;;;;;2.92;1.10;;;;;;;;;;5011807;28;20046;-74
2023/07/15 13:25:54;;;;;;;2.67;1.25;;;;;;;;;;5012129;28;20429;-76
2023/07/15 13:28:19;;;;;;;1.58;0.90;;;;;;;;;;5012745;28;20034;-73
2023/07/15 13:30:45;;;;;;;2.92;1.20;;;;;;;;;;5010976;28;20438;-73
2023/07/15 13:33:10;;;;;;;2.60;1.10;;;;;;;;;;5013738;28;20022;-76
2023/07/15 13:35:35;;;;;;;2.38;1.20;;;;;;;;;;5013652;28;20060;-76
2023/07/15 13:38:01;;;;;;;2.45;0.90;;;;;;;;;;5013651;28;20104;-74
2023/07/15 13:40:26;;;;;;;2.03;0.98;;;;;;;;;;5011521;28;20033;-73
2023/07/15 13:42:51;;;;;;;3.90;1.20;;;;;;;;;;5009288;28;20136;-73
2023/07/15 13:45:17;;;;;;;2.10;1.10;;;;;;;;;;5010270;28;20363;-73
2023/07/15 13:47:42;;;;;;;3.22;1.20;;;;;;;;;;5011156;28;20458;-72
2023/07/15 13:50:08;;;;;;;2.53;0.98;;;;;;;;;;5013416;28;20377;-76
2023/07/15 13:52:33;;;;;;;3.08;1.15;;;;;;;;;;5015117;28;20018;-77
2023/07/15 13:54:58;;;;;;;2.35;1.10;;;;;;;;;;5008052;28;20014;-74
2023/07/15 13:57:23;;;;;;;3.47;1.02;;;;;;;;;;5008625;28;20057;-72
2023/07/15 13:59:49;;;;;;;3.10;1.20;;;;;;;;;;5010718;28;20481;-71
2023/07/15 14:02:33;;;;;;;3.35;1.20;;;;;;;;;;5009100;28;20381;-69
2023/07/15 14:04:59;;;;;;;2.42;1.00;;;;;;;;;;5010749;28;20054;-67
2023/07/15 14:07:28;;;;;;;2.38;0.90;;;;;;;;;;5017069;28;20111;-70
2023/07/15 14:09:54;;;;;;;4.35;1.00;;;;;;;;;;4995053;28;20029;-72
2023/07/15 14:12:19;;;;;;;3.15;1.20;;;;;;;;;;5012779;28;20017;-70
2023/07/15 14:14:44;;;;;;;2.40;1.08;;;;;;;;;;5011039;28;20014;-70
2023/07/15 14:17:09;;;;;;;1.98;1.10;;;;;;;;;;5011493;28;20030;-70
2023/07/15 14:19:35;;;;;;;3.45;0.90;;;;;;;;;;5012586;28;20060;-71
2023/07/15 14:22:00;;;;;;;2.05;1.00;;;;;;;;;;5012090;28;20022;-70
2023/07/15 14:24:25;;;;;;;3.08;1.20;;;;;;;;;;5012648;28;20022;-71
2023/07/15 14:26:50;;;;;;;2.22;1.10;;;;;;;;;;5012053;28;20041;-71
2023/07/15 14:29:16;;;;;;;4.20;1.20;;;;;;;;;;5011889;28;20218;-73
2023/07/15 14:31:41;;;;;;;3.53;1.25;;;;;;;;;;5012241;28;20022;-73
2023/07/15 14:34:06;;;;;;;2.80;1.08;;;;;;;;;;5012744;28;20014;-74
2023/07/15 14:36:31;;;;;;;2.92;1.10;;;;;;;;;;5011623;28;20030;-77